sensor_id;sensor_type;location;lat;lon;timestamp;pressure;altitude;pressure_sealevel;temperature;humidity
55418;BME280;41287;47.554;7.844;2023-01-29T00:02:19;98898.41;;;16.72;56.25
55418;BME280;41287;47.554;7.844;2023-01-29T00:04:46;98887.59;;;16.72;56.21
55418;BME280;41287;47.554;7.844;2023-01-29T00:07:12;98893.00;;;16.72;56.35
55418;BME280;41287;47.554;7.844;2023-01-29T00:09:37;98884.88;;;16.72;56.31
55418;BME280;41287;47.554;7.844;2023-01-29T00:12:04;98884.09;;;16.71;56.24
55418;BME280;41287;47.554;7.844;2023-01-29T00:14:29;98886.78;;;16.71;56.29
55418;BME280;41287;47.554;7.844;2023-01-29T00:16:54;98890.59;;;16.70;56.38
55418;BME280;41287;47.554;7.844;2023-01-29T00:19:20;98886.78;;;16.71;56.29
55418;BME280;41287;47.554;7.844;2023-01-29T00:21:45;98879.47;;;16.72;56.33
55418;BME280;41287;47.554;7.844;2023-01-29T00:24:11;98884.09;;;16.71;56.31
55418;BME280;41287;47.554;7.844;2023-01-29T00:26:39;98881.38;;;16.71;56.46
55418;BME280;41287;47.554;7.844;2023-01-29T00:29:06;98880.88;;;16.69;56.44
55418;BME280;41287;47.554;7.844;2023-01-29T00:31:31;98885.19;;;16.70;56.46
55418;BME280;41287;47.554;7.844;2023-01-29T00:33:58;98885.19;;;16.70;56.38
55418;BME280;41287;47.554;7.844;2023-01-29T00:36:24;98880.56;;;16.71;56.66
55418;BME280;41287;47.554;7.844;2023-01-29T00:38:58;98869.25;;;16.69;56.51
55418;BME280;41287;47.554;7.844;2023-01-29T00:41:30;98877.34;;;16.69;56.65
55418;BME280;41287;47.554;7.844;2023-01-29T00:44:14;98877.34;;;16.69;56.51
55418;BME280;41287;47.554;7.844;2023-01-29T00:46:58;98876.56;;;16.68;56.62
55418;BME280;41287;47.554;7.844;2023-01-29T00:49:24;98878.16;;;16.69;56.58
55418;BME280;41287;47.554;7.844;2023-01-29T00:51:50;98878.44;;;16.68;56.59
55418;BME280;41287;47.554;7.844;2023-01-29T00:54:36;98874.94;;;16.67;56.73
55418;BME280;41287;47.554;7.844;2023-01-29T00:57:03;98881.16;;;16.68;56.86
55418;BME280;41287;47.554;7.844;2023-01-29T00:59:28;98883.88;;;16.68;56.67
55418;BME280;41287;47.554;7.844;2023-01-29T01:01:56;98881.97;;;16.68;56.91
55418;BME280;41287;47.554;7.844;2023-01-29T01:04:42;98883.88;;;16.68;56.95
55418;BME280;41287;47.554;7.844;2023-01-29T01:07:08;98883.88;;;16.68;56.91
55418;BME280;41287;47.554;7.844;2023-01-29T01:09:34;98883.88;;;16.68;56.80
55418;BME280;41287;47.554;7.844;2023-01-29T01:12:21;98873.84;;;16.68;56.80
55418;BME280;41287;47.554;7.844;2023-01-29T01:14:46;98882.25;;;16.67;56.65
55418;BME280;41287;47.554;7.844;2023-01-29T01:17:12;98886.56;;;16.68;56.85
55418;BME280;41287;47.554;7.844;2023-01-29T01:19:39;98894.69;;;16.68;56.87
55418;BME280;41287;47.554;7.844;2023-01-29T01:22:04;98895.78;;;16.67;57.12
55418;BME280;41287;47.554;7.844;2023-01-29T01:24:30;98895.78;;;16.67;56.90
55418;BME280;41287;47.554;7.844;2023-01-29T01:26:55;98892.28;;;16.66;56.92
55418;BME280;41287;47.554;7.844;2023-01-29T01:29:21;98890.38;;;16.67;56.75
55418;BME280;41287;47.554;7.844;2023-01-29T01:31:46;98899.59;;;16.66;57.10
55418;BME280;41287;47.554;7.844;2023-01-29T01:34:12;98900.41;;;16.66;57.04
55418;BME280;41287;47.554;7.844;2023-01-29T01:36:37;98905.00;;;16.66;56.90
55418;BME280;41287;47.554;7.844;2023-01-29T01:39:02;98912.31;;;16.65;57.24
55418;BME280;41287;47.554;7.844;2023-01-29T01:41:28;98918.53;;;16.66;57.12
55418;BME280;41287;47.554;7.844;2023-01-29T01:43:59;98909.59;;;16.65;57.17
55418;BME280;41287;47.554;7.844;2023-01-29T01:46:28;98915.03;;;16.65;57.09
55418;BME280;41287;47.554;7.844;2023-01-29T01:48:58;98903.44;;;16.65;57.10
55418;BME280;41287;47.554;7.844;2023-01-29T01:51:27;98905.00;;;16.66;57.17
55418;BME280;41287;47.554;7.844;2023-01-29T01:54:24;98895.59;;;16.63;57.13
55418;BME280;41287;47.554;7.844;2023-01-29T01:56:54;98898.00;;;16.65;57.19
55418;BME280;41287;47.554;7.844;2023-01-29T01:59:31;98897.22;;;16.64;57.22
55418;BME280;41287;47.554;7.844;2023-01-29T02:01:59;98901.81;;;16.64;57.23
55418;BME280;41287;47.554;7.844;2023-01-29T02:04:46;98908.03;;;16.64;57.30
55418;BME280;41287;47.554;7.844;2023-01-29T02:07:31;98900.72;;;16.65;57.28
55418;BME280;41287;47.554;7.844;2023-01-29T02:10:16;98902.63;;;16.64;57.18
55418;BME280;41287;47.554;7.844;2023-01-29T02:12:43;98901.81;;;16.64;57.23
55418;BME280;41287;47.554;7.844;2023-01-29T02:15:10;98911.03;;;16.63;57.14
55418;BME280;41287;47.554;7.844;2023-01-29T02:17:35;98909.13;;;16.63;57.35
55418;BME280;41287;47.554;7.844;2023-01-29T02:20:21;98911.03;;;16.63;57.22
55418;BME280;41287;47.554;7.844;2023-01-29T02:28:34;98907.81;;;16.61;57.18
55418;BME280;41287;47.554;7.844;2023-01-29T02:39:18;98895.09;;;16.61;57.33
55418;BME280;41287;47.554;7.844;2023-01-29T02:41:54;98898.91;;;16.60;57.55
55418;BME280;41287;47.554;7.844;2023-01-29T02:47:21;98901.09;;;16.58;57.54
55418;BME280;41287;47.554;7.844;2023-01-29T02:52:39;98908.41;;;16.57;57.50
55418;BME280;41287;47.554;7.844;2023-01-29T02:55:12;98908.88;;;16.59;57.53
55418;BME280;41287;47.554;7.844;2023-01-29T02:57:43;98906.19;;;16.59;57.50
55418;BME280;41287;47.554;7.844;2023-01-29T03:00:12;98898.38;;;16.58;57.63
55418;BME280;41287;47.554;7.844;2023-01-29T03:02:59;98897.56;;;16.57;57.67
55418;BME280;41287;47.554;7.844;2023-01-29T03:05:36;98899.47;;;16.57;57.62
55418;BME280;41287;47.554;7.844;2023-01-29T03:08:10;98907.28;;;16.58;57.60
55418;BME280;41287;47.554;7.844;2023-01-29T03:10:39;98895.69;;;16.58;57.63
55418;BME280;41287;47.554;7.844;2023-01-29T03:13:18;98889.75;;;16.56;57.67
55418;BME280;41287;47.554;7.844;2023-01-29T03:15:48;98901.09;;;16.58;57.69
55418;BME280;41287;47.554;7.844;2023-01-29T03:18:22;98902.19;;;16.57;57.54
55418;BME280;41287;47.554;7.844;2023-01-29T03:20:56;98899.47;;;16.57;57.57
55418;BME280;41287;47.554;7.844;2023-01-29T03:23:25;98894.06;;;16.57;57.56
55418;BME280;41287;47.554;7.844;2023-01-29T03:26:12;98901.38;;;16.56;57.72
55418;BME280;41287;47.554;7.844;2023-01-29T03:28:57;98902.19;;;16.57;57.63
55418;BME280;41287;47.554;7.844;2023-01-29T03:31:43;98903.28;;;16.56;57.55
55418;BME280;41287;47.554;7.844;2023-01-29T03:34:28;98903.28;;;16.56;57.68
55418;BME280;41287;47.554;7.844;2023-01-29T03:37:06;98902.47;;;16.55;57.71
55418;BME280;41287;47.554;7.844;2023-01-29T03:39:34;98907.09;;;16.55;57.75
55418;BME280;41287;47.554;7.844;2023-01-29T03:42:11;98903.56;;;16.54;57.62
55418;BME280;41287;47.554;7.844;2023-01-29T03:47:36;98908.97;;;16.54;57.77
55418;BME280;41287;47.554;7.844;2023-01-29T03:50:25;98900.88;;;16.54;57.68
55418;BME280;41287;47.554;7.844;2023-01-29T03:53:09;98903.88;;;16.53;57.77
55418;BME280;41287;47.554;7.844;2023-01-29T03:58:20;98894.94;;;16.52;57.84
55418;BME280;41287;47.554;7.844;2023-01-29T04:00:53;98901.16;;;16.53;57.86
55418;BME280;41287;47.554;7.844;2023-01-29T04:03:31;98905.75;;;16.52;57.75
55418;BME280;41287;47.554;7.844;2023-01-29T04:06:05;98904.66;;;16.53;57.83
55418;BME280;41287;47.554;7.844;2023-01-29T04:08:43;98898.47;;;16.53;57.82
55418;BME280;41287;47.554;7.844;2023-01-29T04:11:17;98895.75;;;16.53;57.75
55418;BME280;41287;47.554;7.844;2023-01-29T04:13:45;98896.56;;;16.53;57.74
55418;BME280;41287;47.554;7.844;2023-01-29T04:16:15;98894.94;;;16.52;57.84
55418;BME280;41287;47.554;7.844;2023-01-29T04:18:46;98889.53;;;16.52;57.97
55418;BME280;41287;47.554;7.844;2023-01-29T04:21:13;98886.84;;;16.52;57.89
55418;BME280;41287;47.554;7.844;2023-01-29T04:23:40;98880.63;;;16.52;57.90
55418;BME280;41287;47.554;7.844;2023-01-29T04:26:32;98882.03;;;16.49;57.92
55418;BME280;41287;47.554;7.844;2023-01-29T04:29:22;98889.84;;;16.51;57.86
55418;BME280;41287;47.554;7.844;2023-01-29T04:34:27;98890.97;;;16.50;57.78
55418;BME280;41287;47.554;7.844;2023-01-29T04:39:32;98897.97;;;16.51;57.97
55418;BME280;41287;47.554;7.844;2023-01-29T04:45:02;98899.38;;;16.48;58.07
55418;BME280;41287;47.554;7.844;2023-01-29T04:47:48;98906.38;;;16.49;58.04
55418;BME280;41287;47.554;7.844;2023-01-29T04:53:43;98907.47;;;16.48;58.03
55418;BME280;41287;47.554;7.844;2023-01-29T04:56:19;98906.38;;;16.49;57.91
55418;BME280;41287;47.554;7.844;2023-01-29T04:58:51;98909.09;;;16.49;57.99
55418;BME280;41287;47.554;7.844;2023-01-29T05:01:21;98912.59;;;16.50;58.19
55418;BME280;41287;47.554;7.844;2023-01-29T05:03:51;98903.69;;;16.49;58.08
55418;BME280;41287;47.554;7.844;2023-01-29T05:06:19;98902.88;;;16.49;58.35
55418;BME280;41287;47.554;7.844;2023-01-29T05:08:46;98906.38;;;16.49;58.02
55418;BME280;41287;47.554;7.844;2023-01-29T05:11:13;98910.19;;;16.48;57.99
55418;BME280;41287;47.554;7.844;2023-01-29T05:13:40;98910.19;;;16.48;58.19
55418;BME280;41287;47.554;7.844;2023-01-29T05:16:12;98910.19;;;16.48;58.12
55418;BME280;41287;47.554;7.844;2023-01-29T05:18:39;98910.19;;;16.48;58.18
55418;BME280;41287;47.554;7.844;2023-01-29T05:21:06;98900.47;;;16.47;58.01
55418;BME280;41287;47.554;7.844;2023-01-29T05:23:32;98904.78;;;16.48;58.09
55418;BME280;41287;47.554;7.844;2023-01-29T05:25:58;98903.97;;;16.48;58.10
55418;BME280;41287;47.554;7.844;2023-01-29T05:28:23;98905.56;;;16.49;58.20
55418;BME280;41287;47.554;7.844;2023-01-29T05:30:51;98903.97;;;16.48;57.96
55418;BME280;41287;47.554;7.844;2023-01-29T05:33:34;98914.28;;;16.46;58.08
55418;BME280;41287;47.554;7.844;2023-01-29T05:35:59;98912.88;;;16.48;58.21
55418;BME280;41287;47.554;7.844;2023-01-29T05:38:25;98917.50;;;16.48;58.09
55418;BME280;41287;47.554;7.844;2023-01-29T05:40:50;98910.47;;;16.47;58.13
55418;BME280;41287;47.554;7.844;2023-01-29T05:43:18;98914.00;;;16.47;58.21
55418;BME280;41287;47.554;7.844;2023-01-29T05:45:53;98926.72;;;16.47;58.12
55418;BME280;41287;47.554;7.844;2023-01-29T05:48:21;98922.09;;;16.47;58.27
55418;BME280;41287;47.554;7.844;2023-01-29T05:50:46;98926.72;;;16.47;58.25
55418;BME280;41287;47.554;7.844;2023-01-29T05:53:12;98929.41;;;16.47;58.13
55418;BME280;41287;47.554;7.844;2023-01-29T05:55:37;98934.03;;;16.46;58.41
55418;BME280;41287;47.554;7.844;2023-01-29T05:58:03;98922.41;;;16.46;58.19
55418;BME280;41287;47.554;7.844;2023-01-29T06:00:28;98930.22;;;16.47;58.27
55418;BME280;41287;47.554;7.844;2023-01-29T06:02:53;98925.91;;;16.46;58.32
55418;BME280;41287;47.554;7.844;2023-01-29T06:05:19;98923.19;;;16.46;58.29
55418;BME280;41287;47.554;7.844;2023-01-29T06:07:44;98925.09;;;16.46;58.43
55418;BME280;41287;47.554;7.844;2023-01-29T06:10:12;98931.31;;;16.46;58.30
55418;BME280;41287;47.554;7.844;2023-01-29T06:12:39;98932.41;;;16.45;58.27
55418;BME280;41287;47.554;7.844;2023-01-29T06:15:04;98935.13;;;16.45;58.43
55418;BME280;41287;47.554;7.844;2023-01-29T06:17:30;98949.44;;;16.46;58.28
55418;BME280;41287;47.554;7.844;2023-01-29T06:19:55;98954.84;;;16.46;58.37
55418;BME280;41287;47.554;7.844;2023-01-29T06:22:21;98957.56;;;16.46;58.49
55418;BME280;41287;47.554;7.844;2023-01-29T06:24:46;98953.25;;;16.45;58.39
55418;BME280;41287;47.554;7.844;2023-01-29T06:27:17;98955.19;;;16.44;58.30
55418;BME280;41287;47.554;7.844;2023-01-29T06:29:44;98960.59;;;16.44;58.43
55418;BME280;41287;47.554;7.844;2023-01-29T06:32:10;98959.78;;;16.44;58.33
55418;BME280;41287;47.554;7.844;2023-01-29T06:34:35;98954.38;;;16.44;58.47
55418;BME280;41287;47.554;7.844;2023-01-29T06:37:00;98965.19;;;16.44;58.50
55418;BME280;41287;47.554;7.844;2023-01-29T06:39:26;98965.19;;;16.44;58.40
55418;BME280;41287;47.554;7.844;2023-01-29T06:41:54;98956.28;;;16.43;58.30
55418;BME280;41287;47.554;7.844;2023-01-29T06:44:21;98956.28;;;16.43;58.42
55418;BME280;41287;47.554;7.844;2023-01-29T06:46:46;98950.06;;;16.43;58.53
55418;BME280;41287;47.554;7.844;2023-01-29T06:49:12;98940.03;;;16.43;58.44
55418;BME280;41287;47.554;7.844;2023-01-29T06:51:39;98931.94;;;16.43;58.39
55418;BME280;41287;47.554;7.844;2023-01-29T06:54:05;98933.81;;;16.43;58.38
55418;BME280;41287;47.554;7.844;2023-01-29T06:56:32;98933.03;;;16.42;58.46
55418;BME280;41287;47.554;7.844;2023-01-29T06:58:58;98931.13;;;16.43;58.50
55418;BME280;41287;47.554;7.844;2023-01-29T07:01:24;98935.72;;;16.42;58.45
55418;BME280;41287;47.554;7.844;2023-01-29T07:03:49;98933.03;;;16.42;58.38
55418;BME280;41287;47.554;7.844;2023-01-29T07:06:16;98939.25;;;16.43;58.33
55418;BME280;41287;47.554;7.844;2023-01-29T07:08:42;98945.75;;;16.42;58.49
55418;BME280;41287;47.554;7.844;2023-01-29T07:11:07;98947.66;;;16.41;58.61
55418;BME280;41287;47.554;7.844;2023-01-29T07:13:33;98958.16;;;16.43;58.55
55418;BME280;41287;47.554;7.844;2023-01-29T07:16:01;98950.34;;;16.41;58.53
55418;BME280;41287;47.554;7.844;2023-01-29T07:18:27;98958.16;;;16.43;58.40
55418;BME280;41287;47.554;7.844;2023-01-29T07:20:53;98959.25;;;16.42;58.62
55418;BME280;41287;47.554;7.844;2023-01-29T07:23:18;98961.16;;;16.41;58.40
55418;BME280;41287;47.554;7.844;2023-01-29T07:25:44;98959.25;;;16.42;58.50
55418;BME280;41287;47.554;7.844;2023-01-29T07:28:12;98963.88;;;16.41;58.47
55418;BME280;41287;47.554;7.844;2023-01-29T07:30:37;98964.69;;;16.42;58.44
55418;BME280;41287;47.554;7.844;2023-01-29T07:33:12;98963.06;;;16.41;58.53
55418;BME280;41287;47.554;7.844;2023-01-29T07:35:39;98964.69;;;16.42;58.56
55418;BME280;41287;47.554;7.844;2023-01-29T07:38:06;98965.78;;;16.41;58.72
55418;BME280;41287;47.554;7.844;2023-01-29T07:40:32;98966.88;;;16.40;58.55
55418;BME280;41287;47.554;7.844;2023-01-29T07:43:03;98973.09;;;16.40;58.63
55418;BME280;41287;47.554;7.844;2023-01-29T07:45:29;98973.88;;;16.41;58.58
55418;BME280;41287;47.554;7.844;2023-01-29T07:47:55;98973.09;;;16.40;58.62
55418;BME280;41287;47.554;7.844;2023-01-29T07:50:25;98993.91;;;16.40;58.73
55418;BME280;41287;47.554;7.844;2023-01-29T07:52:53;98997.44;;;16.40;58.71
55418;BME280;41287;47.554;7.844;2023-01-29T07:55:18;98994.72;;;16.40;58.63
55418;BME280;41287;47.554;7.844;2023-01-29T07:57:45;98991.22;;;16.40;58.63
55418;BME280;41287;47.554;7.844;2023-01-29T08:00:13;98983.91;;;16.40;58.71
55418;BME280;41287;47.554;7.844;2023-01-29T08:02:39;98980.09;;;16.41;58.55
55418;BME280;41287;47.554;7.844;2023-01-29T08:05:05;98990.91;;;16.41;58.79
55418;BME280;41287;47.554;7.844;2023-01-29T08:07:30;98984.41;;;16.42;58.76
55418;BME280;41287;47.554;7.844;2023-01-29T08:09:56;98994.34;;;16.47;58.90
55418;BME280;41287;47.554;7.844;2023-01-29T08:12:21;98993.44;;;16.51;59.24
55418;BME280;41287;47.554;7.844;2023-01-29T08:14:47;98988.25;;;16.55;59.87
55418;BME280;41287;47.554;7.844;2023-01-29T08:17:12;98987.66;;;16.58;61.07
55418;BME280;41287;47.554;7.844;2023-01-29T08:19:37;98982.47;;;16.62;61.21
55418;BME280;41287;47.554;7.844;2023-01-29T08:22:04;98992.72;;;16.65;62.10
55418;BME280;41287;47.554;7.844;2023-01-29T08:24:29;98989.41;;;16.68;63.00
55418;BME280;41287;47.554;7.844;2023-01-29T08:26:55;98987.72;;;16.72;64.20
55418;BME280;41287;47.554;7.844;2023-01-29T08:29:20;98989.81;;;16.75;65.01
55418;BME280;41287;47.554;7.844;2023-01-29T08:31:46;98993.03;;;16.77;66.20
55418;BME280;41287;47.554;7.844;2023-01-29T08:34:11;99003.25;;;16.80;67.06
55418;BME280;41287;47.554;7.844;2023-01-29T08:36:36;99003.97;;;16.85;68.50
55418;BME280;41287;47.554;7.844;2023-01-29T08:39:02;99010.66;;;16.88;67.61
55418;BME280;41287;47.554;7.844;2023-01-29T08:41:27;99014.47;;;16.87;67.54
55418;BME280;41287;47.554;7.844;2023-01-29T08:43:52;99016.69;;;16.85;67.39
55418;BME280;41287;47.554;7.844;2023-01-29T08:46:18;99017.81;;;16.84;67.50
55418;BME280;41287;47.554;7.844;2023-01-29T08:48:45;99018.91;;;16.83;67.49
55418;BME280;41287;47.554;7.844;2023-01-29T08:51:13;99027.31;;;16.81;68.14
55418;BME280;41287;47.554;7.844;2023-01-29T08:53:39;99024.59;;;16.81;68.98
55418;BME280;41287;47.554;7.844;2023-01-29T08:56:04;99029.72;;;16.83;69.05
55418;BME280;41287;47.554;7.844;2023-01-29T08:58:30;99024.31;;;16.83;69.61
55418;BME280;41287;47.554;7.844;2023-01-29T09:00:55;99027.81;;;16.83;69.78
55418;BME280;41287;47.554;7.844;2023-01-29T09:03:21;99025.13;;;16.83;69.43
55418;BME280;41287;47.554;7.844;2023-01-29T09:05:48;99031.03;;;16.85;70.17
55418;BME280;41287;47.554;7.844;2023-01-29T09:08:13;99026.41;;;16.86;69.82
55418;BME280;41287;47.554;7.844;2023-01-29T09:10:39;99027.22;;;16.86;70.28
55418;BME280;41287;47.554;7.844;2023-01-29T09:13:05;99031.53;;;16.87;70.55
55418;BME280;41287;47.554;7.844;2023-01-29T09:15:32;99041.25;;;16.88;69.60
55418;BME280;41287;47.554;7.844;2023-01-29T09:18:02;99045.88;;;16.88;70.02
55418;BME280;41287;47.554;7.844;2023-01-29T09:20:28;99049.38;;;16.88;69.14
55418;BME280;41287;47.554;7.844;2023-01-29T09:22:53;99048.88;;;16.86;66.92
55418;BME280;41287;47.554;7.844;2023-01-29T09:25:21;99047.88;;;16.82;64.75
55418;BME280;41287;47.554;7.844;2023-01-29T09:27:48;99050.34;;;16.79;62.02
55418;BME280;41287;47.554;7.844;2023-01-29T09:30:13;99053.06;;;16.79;61.45
55418;BME280;41287;47.554;7.844;2023-01-29T09:32:39;99049.06;;;16.76;61.18
55418;BME280;41287;47.554;7.844;2023-01-29T09:35:04;99050.16;;;16.75;61.11
55418;BME280;41287;47.554;7.844;2023-01-29T09:37:30;99044.75;;;16.75;60.87
55418;BME280;41287;47.554;7.844;2023-01-29T09:39:55;99052.06;;;16.75;60.96
55418;BME280;41287;47.554;7.844;2023-01-29T09:45:01;99055.84;;;16.74;60.46
55418;BME280;41287;47.554;7.844;2023-01-29T09:47:31;99053.44;;;16.72;60.17
55418;BME280;41287;47.554;7.844;2023-01-29T09:50:01;99056.47;;;16.71;59.84
55418;BME280;41287;47.554;7.844;2023-01-29T09:53:11;99055.97;;;16.69;59.60
55418;BME280;41287;47.554;7.844;2023-01-29T09:55:33;99056.47;;;16.71;59.57
55418;BME280;41287;47.554;7.844;2023-01-29T09:58:12;99060.56;;;16.68;58.94
55418;BME280;41287;47.554;7.844;2023-01-29T10:03:42;99063.28;;;16.68;59.00
55418;BME280;41287;47.554;7.844;2023-01-29T10:20:05;99056.84;;;16.64;58.18
55418;BME280;41287;47.554;7.844;2023-01-29T10:22:44;99053.34;;;16.64;58.11
55418;BME280;41287;47.554;7.844;2023-01-29T10:25:16;99054.16;;;16.64;57.86
55418;BME280;41287;47.554;7.844;2023-01-29T10:27:49;99046.31;;;16.63;57.63
55418;BME280;41287;47.554;7.844;2023-01-29T10:32:53;99047.13;;;16.63;57.41
55418;BME280;41287;47.554;7.844;2023-01-29T10:35:28;99049.31;;;16.61;57.38
55418;BME280;41287;47.554;7.844;2023-01-29T10:37:57;99046.31;;;16.63;57.53
55418;BME280;41287;47.554;7.844;2023-01-29T10:40:55;99045.25;;;16.58;57.30
55418;BME280;41287;47.554;7.844;2023-01-29T10:43:56;99046.88;;;16.59;57.03
55418;BME280;41287;47.554;7.844;2023-01-29T10:51:51;99025.22;;;16.59;56.85
55418;BME280;41287;47.554;7.844;2023-01-29T10:54:33;99029.34;;;16.57;56.78
55418;BME280;41287;47.554;7.844;2023-01-29T11:02:47;99019.63;;;16.56;56.50
55418;BME280;41287;47.554;7.844;2023-01-29T11:05:29;99015.31;;;16.55;56.47
55418;BME280;41287;47.554;7.844;2023-01-29T11:08:08;99009.88;;;16.55;56.06
55418;BME280;41287;47.554;7.844;2023-01-29T11:13:22;98990.94;;;16.55;56.31
55418;BME280;41287;47.554;7.844;2023-01-29T11:15:53;98995.56;;;16.54;56.36
55418;BME280;41287;47.554;7.844;2023-01-29T11:18:19;98996.38;;;16.55;56.33
55418;BME280;41287;47.554;7.844;2023-01-29T11:20:44;99000.16;;;16.54;56.27
55418;BME280;41287;47.554;7.844;2023-01-29T11:23:25;99002.88;;;16.54;56.09
55418;BME280;41287;47.554;7.844;2023-01-29T11:25:52;98985.03;;;16.53;56.09
55418;BME280;41287;47.554;7.844;2023-01-29T11:28:41;98977.19;;;16.51;56.16
55418;BME280;41287;47.554;7.844;2023-01-29T11:31:34;98972.59;;;16.52;55.88
55418;BME280;41287;47.554;7.844;2023-01-29T11:34:12;98977.72;;;16.53;55.86
55418;BME280;41287;47.554;7.844;2023-01-29T11:36:40;98977.72;;;16.53;55.68
55418;BME280;41287;47.554;7.844;2023-01-29T11:39:21;98977.19;;;16.51;55.72
55418;BME280;41287;47.554;7.844;2023-01-29T11:41:52;98981.50;;;16.52;55.76
55418;BME280;41287;47.554;7.844;2023-01-29T11:44:40;98977.19;;;16.51;55.66
55418;BME280;41287;47.554;7.844;2023-01-29T11:49:49;98979.13;;;16.51;55.77
55418;BME280;41287;47.554;7.844;2023-01-29T11:52:18;98979.91;;;16.51;55.71
55418;BME280;41287;47.554;7.844;2023-01-29T11:54:52;98977.19;;;16.51;55.58
55418;BME280;41287;47.554;7.844;2023-01-29T11:57:28;98981.03;;;16.50;55.44
55418;BME280;41287;47.554;7.844;2023-01-29T11:59:58;98979.91;;;16.51;55.84
55418;BME280;41287;47.554;7.844;2023-01-29T12:02:35;98975.63;;;16.50;55.41
55418;BME280;41287;47.554;7.844;2023-01-29T12:05:04;98970.22;;;16.50;55.51
55418;BME280;41287;47.554;7.844;2023-01-29T12:07:31;98971.03;;;16.51;55.50
55418;BME280;41287;47.554;7.844;2023-01-29T12:09:58;98969.41;;;16.50;55.36
55418;BME280;41287;47.554;7.844;2023-01-29T12:12:40;98965.91;;;16.49;55.27
55418;BME280;41287;47.554;7.844;2023-01-29T12:15:22;98968.59;;;16.49;55.21
55418;BME280;41287;47.554;7.844;2023-01-29T12:18:21;98959.69;;;16.49;55.14
55418;BME280;41287;47.554;7.844;2023-01-29T12:20:56;98965.09;;;16.49;55.22
55418;BME280;41287;47.554;7.844;2023-01-29T12:23:47;98963.47;;;16.48;55.17
55418;BME280;41287;47.554;7.844;2023-01-29T12:26:45;98963.47;;;16.48;55.20
55418;BME280;41287;47.554;7.844;2023-01-29T12:29:43;98969.69;;;16.48;55.18
55418;BME280;41287;47.554;7.844;2023-01-29T12:32:38;98967.00;;;16.48;55.09
55418;BME280;41287;47.554;7.844;2023-01-29T12:40:18;98965.09;;;16.49;55.04
55418;BME280;41287;47.554;7.844;2023-01-29T12:42:48;98953.75;;;16.47;54.99
55418;BME280;41287;47.554;7.844;2023-01-29T12:45:18;98964.28;;;16.48;54.89
55418;BME280;41287;47.554;7.844;2023-01-29T12:47:51;98958.06;;;16.48;54.79
55418;BME280;41287;47.554;7.844;2023-01-29T12:50:26;98954.56;;;16.47;54.81
55418;BME280;41287;47.554;7.844;2023-01-29T12:55:42;98949.44;;;16.46;54.62
55418;BME280;41287;47.554;7.844;2023-01-29T12:58:14;98956.16;;;16.48;54.67
55418;BME280;41287;47.554;7.844;2023-01-29T13:00:43;98957.28;;;16.47;54.70
55418;BME280;41287;47.554;7.844;2023-01-29T13:03:24;98955.66;;;16.46;54.69
55418;BME280;41287;47.554;7.844;2023-01-29T13:06:07;98952.94;;;16.46;54.68
55418;BME280;41287;47.554;7.844;2023-01-29T13:08:39;98954.56;;;16.47;54.77
55418;BME280;41287;47.554;7.844;2023-01-29T13:11:12;98942.94;;;16.47;54.80
55418;BME280;41287;47.554;7.844;2023-01-29T13:13:48;98942.13;;;16.46;54.77
55418;BME280;41287;47.554;7.844;2023-01-29T13:16:20;98935.63;;;16.47;54.71
55418;BME280;41287;47.554;7.844;2023-01-29T13:18:54;98938.63;;;16.46;54.39
55418;BME280;41287;47.554;7.844;2023-01-29T13:21:24;98932.91;;;16.47;54.50
55418;BME280;41287;47.554;7.844;2023-01-29T13:23:55;98928.59;;;16.46;54.54
55418;BME280;41287;47.554;7.844;2023-01-29T13:26:22;98923.19;;;16.46;54.38
55418;BME280;41287;47.554;7.844;2023-01-29T13:28:48;98927.50;;;16.47;54.39
55418;BME280;41287;47.554;7.844;2023-01-29T13:31:28;98920.78;;;16.45;54.51
55418;BME280;41287;47.554;7.844;2023-01-29T13:34:11;98918.88;;;16.45;54.39
55418;BME280;41287;47.554;7.844;2023-01-29T13:36:42;98916.69;;;16.47;54.28
55418;BME280;41287;47.554;7.844;2023-01-29T13:41:48;98899.94;;;16.45;54.42
55418;BME280;41287;47.554;7.844;2023-01-29T13:46:54;98897.25;;;16.45;54.52
55418;BME280;41287;47.554;7.844;2023-01-29T13:49:39;98899.94;;;16.45;54.22
55418;BME280;41287;47.554;7.844;2023-01-29T13:52:27;98888.66;;;16.43;54.26
55418;BME280;41287;47.554;7.844;2023-01-29T13:54:57;98883.72;;;16.45;54.47
55418;BME280;41287;47.554;7.844;2023-01-29T14:10:32;98891.03;;;16.45;54.13
55418;BME280;41287;47.554;7.844;2023-01-29T14:15:44;98882.13;;;16.44;54.01
55418;BME280;41287;47.554;7.844;2023-01-29T14:23:39;98874.31;;;16.43;53.93
55418;BME280;41287;47.554;7.844;2023-01-29T14:26:20;98866.19;;;16.43;53.86
55418;BME280;41287;47.554;7.844;2023-01-29T14:29:02;98867.81;;;16.44;54.04
55418;BME280;41287;47.554;7.844;2023-01-29T14:31:36;98867.00;;;16.43;53.90
55418;BME280;41287;47.554;7.844;2023-01-29T14:34:06;98862.41;;;16.44;53.90
55418;BME280;41287;47.554;7.844;2023-01-29T14:36:39;98865.91;;;16.44;54.01
55418;BME280;41287;47.554;7.844;2023-01-29T14:39:24;98856.19;;;16.43;54.01
55418;BME280;41287;47.554;7.844;2023-01-29T14:41:52;98857.00;;;16.44;54.03
55418;BME280;41287;47.554;7.844;2023-01-29T14:50:01;98865.09;;;16.44;54.07
55418;BME280;41287;47.554;7.844;2023-01-29T14:52:40;98868.63;;;16.44;53.79
55418;BME280;41287;47.554;7.844;2023-01-29T14:55:25;98858.91;;;16.43;53.78
55418;BME280;41287;47.554;7.844;2023-01-29T14:57:53;98865.91;;;16.44;53.85
55418;BME280;41287;47.554;7.844;2023-01-29T15:00:27;98868.09;;;16.42;53.73
55418;BME280;41287;47.554;7.844;2023-01-29T15:02:54;98860.50;;;16.44;53.69
55418;BME280;41287;47.554;7.844;2023-01-29T15:05:25;98867.00;;;16.43;53.74
55418;BME280;41287;47.554;7.844;2023-01-29T15:08:18;98868.09;;;16.42;53.80
55418;BME280;41287;47.554;7.844;2023-01-29T15:10:52;98867.81;;;16.44;53.73
55418;BME280;41287;47.554;7.844;2023-01-29T15:14:21;98876.22;;;16.42;53.75
55418;BME280;41287;47.554;7.844;2023-01-29T15:17:06;98879.72;;;16.43;53.72
55418;BME280;41287;47.554;7.844;2023-01-29T15:19:42;98879.72;;;16.43;53.58